createdAt,value
2022-09-05T06:14:51.768Z,4.07
2022-09-05T06:16:11.133Z,3.80
2022-09-05T06:19:23.908Z,4.50
2022-09-05T06:22:43.711Z,4.50
2022-09-05T06:26:09.559Z,4.18
2022-09-05T06:28:56.530Z,4.45
2022-09-05T06:31:54.151Z,3.90
2022-09-05T06:35:00.103Z,4.15
2022-09-05T06:37:42.732Z,3.65
2022-09-05T06:40:19.786Z,3.58
2022-09-05T06:43:14.407Z,4.00
2022-09-05T06:46:06.085Z,4.13
2022-09-05T06:48:45.903Z,4.25
2022-09-05T06:52:29.222Z,3.97
2022-09-05T06:55:33.219Z,4.05
2022-09-05T06:58:42.867Z,3.88
2022-09-05T07:01:14.841Z,3.40
2022-09-05T07:05:14.636Z,3.95
2022-09-05T07:07:16.970Z,3.72
2022-09-05T07:09:57.588Z,3.63
2022-09-05T07:12:30.113Z,3.88
2022-09-05T07:15:10.178Z,3.83
2022-09-05T07:18:09.707Z,3.40
2022-09-05T07:21:18.033Z,4.00
2022-09-05T07:24:05.923Z,4.03
2022-09-05T07:26:53.602Z,3.65
2022-09-05T07:29:27.973Z,4.30
2022-09-05T07:31:57.359Z,3.78
2022-09-05T07:34:31.394Z,3.42
2022-09-05T07:37:15.407Z,3.90
2022-09-05T07:39:49.840Z,8.93
2022-09-05T07:42:25.650Z,4.18
2022-09-05T07:44:57.828Z,4.85
2022-09-05T07:47:30.897Z,3.95
2022-09-05T07:53:49.815Z,5.20
2022-09-05T07:57:06.275Z,4.13
2022-09-05T07:57:09.779Z,3.90
2022-09-05T07:58:46.043Z,3.55
2022-09-05T08:01:15.881Z,4.07
2022-09-05T08:03:44.891Z,4.10
2022-09-05T08:07:14.379Z,3.63
2022-09-05T08:10:05.246Z,3.63
2022-09-05T08:12:16.091Z,3.40
2022-09-05T08:14:52.792Z,3.65
2022-09-05T08:17:26.320Z,3.75
2022-09-05T08:20:25.537Z,3.65
2022-09-05T08:23:05.223Z,4.50
2022-09-05T08:25:57.514Z,4.40
2022-09-05T08:28:37.611Z,4.00
2022-09-05T08:31:14.324Z,3.53
2022-09-05T08:33:44.052Z,3.55
2022-09-05T08:36:25.067Z,3.50
2022-09-05T08:38:55.317Z,3.92
2022-09-05T08:41:42.977Z,3.38
2022-09-05T08:46:39.832Z,3.13
2022-09-05T08:47:28.765Z,3.65
2022-09-05T08:50:30.121Z,4.00
2022-09-05T08:53:26.778Z,3.67
2022-09-05T08:56:10.934Z,3.83
2022-09-05T08:59:28.474Z,3.10
2022-09-05T09:02:46.220Z,3.55
2022-09-05T09:05:14.148Z,3.35
2022-09-05T09:07:52.010Z,4.05
2022-09-05T09:10:48.014Z,3.42
2022-09-05T09:13:35.858Z,3.50
2022-09-05T09:16:10.973Z,3.47
2022-09-05T09:19:08.869Z,3.95
2022-09-05T09:21:47.096Z,3.60
2022-09-05T09:24:31.233Z,3.55
2022-09-05T09:27:06.152Z,3.33
2022-09-05T09:29:41.076Z,3.53
2022-09-05T09:32:14.201Z,3.40
2022-09-05T09:34:55.617Z,3.92
2022-09-05T09:38:09.270Z,3.55
2022-09-05T09:41:23.068Z,3.35
2022-09-05T09:44:52.309Z,3.63
2022-09-05T09:47:46.520Z,3.40
2022-09-05T09:50:29.869Z,3.15
2022-09-05T09:53:26.014Z,3.58
2022-09-05T09:56:36.818Z,3.22
2022-09-05T09:59:59.502Z,3.58
2022-09-05T10:07:17.044Z,3.63
2022-09-05T10:10:45.322Z,3.80
2022-09-05T10:10:52.851Z,3.40
2022-09-05T10:13:17.000Z,3.65
2022-09-05T10:16:31.165Z,3.50
2022-09-05T10:23:07.809Z,3.83
2022-09-05T10:26:11.494Z,2.95
2022-09-05T10:28:45.118Z,3.38
2022-09-05T10:33:24.274Z,3.28
2022-09-05T10:35:14.947Z,3.38
2022-09-05T10:37:13.951Z,3.70
2022-09-05T10:39:47.020Z,3.60
2022-09-05T10:42:25.297Z,3.13
2022-09-05T10:44:56.246Z,3.15
2022-09-05T10:47:39.236Z,3.50
2022-09-05T10:50:25.971Z,3.85
2022-09-05T10:53:10.645Z,3.30
2022-09-05T10:55:56.684Z,3.40
2022-09-05T11:00:56.421Z,3.17
2022-09-05T11:02:27.976Z,3.05
2022-09-05T11:04:54.313Z,3.22
2022-09-05T11:07:37.133Z,2.97
2022-09-05T11:10:12.631Z,2.97
2022-09-05T11:13:07.390Z,3.28
2022-09-05T11:16:04.265Z,3.00
2022-09-05T11:18:57.119Z,3.72
2022-09-05T11:22:04.293Z,3.40
2022-09-05T11:24:51.971Z,3.60
2022-09-05T11:27:31.261Z,3.20
2022-09-05T11:30:06.709Z,3.38
2022-09-05T11:36:42.943Z,3.10
2022-09-05T11:39:55.183Z,3.15
2022-09-05T11:39:56.167Z,3.10
2022-09-05T11:42:42.662Z,3.20
2022-09-05T11:45:36.914Z,3.22
2022-09-05T11:48:59.995Z,3.30
2022-09-05T11:52:28.320Z,2.90
2022-09-05T11:55:34.283Z,3.17
2022-09-05T11:58:53.718Z,3.15
2022-09-05T12:01:42.720Z,2.80
2022-09-05T12:05:50.018Z,3.03
2022-09-05T12:08:04.325Z,2.90
2022-09-05T12:10:48.312Z,3.10
2022-09-05T12:13:42.472Z,3.00
2022-09-05T12:16:50.715Z,2.75
2022-09-05T12:19:32.762Z,2.85
2022-09-05T12:22:23.960Z,3.00
2022-09-05T12:25:26.476Z,2.90
2022-09-05T12:29:26.165Z,2.80
2022-09-05T12:32:43.085Z,2.97
2022-09-05T12:36:12.246Z,2.80
2022-09-05T12:40:06.273Z,2.92
2022-09-05T12:41:33.949Z,3.10
2022-09-05T12:42:56.389Z,2.78
2022-09-05T12:45:50.156Z,2.55
2022-09-05T12:48:38.502Z,2.60
2022-09-05T12:51:11.843Z,2.50
2022-09-05T12:54:09.388Z,2.63
2022-09-05T12:59:46.803Z,2.65
2022-09-05T13:03:01.668Z,2.75
2022-09-05T13:03:07.314Z,2.42
2022-09-05T13:06:00.471Z,2.70
2022-09-05T13:08:43.891Z,2.80
2022-09-05T13:14:47.780Z,2.33
2022-09-05T13:14:53.684Z,2.92
2022-09-05T13:17:00.025Z,2.55
2022-09-05T13:19:37.300Z,2.50
2022-09-05T13:22:08.609Z,2.90
2022-09-05T13:24:41.468Z,2.65
2022-09-05T13:27:15.326Z,2.45
2022-09-05T13:30:35.356Z,2.70
2022-09-05T13:37:58.445Z,2.50
2022-09-05T13:38:30.624Z,2.72
2022-09-05T13:38:49.463Z,2.60
2022-09-05T13:41:28.443Z,2.65
2022-09-05T13:44:25.151Z,2.60
2022-09-05T13:46:58.693Z,2.53
2022-09-05T13:49:33.307Z,2.65
2022-09-05T13:52:29.024Z,2.65
2022-09-05T13:55:22.562Z,3.03
2022-09-05T13:57:57.438Z,2.60
2022-09-05T14:01:28.154Z,2.50
2022-09-05T14:05:07.461Z,2.65
2022-09-05T14:08:18.875Z,2.40
2022-09-05T14:11:22.830Z,2.30
2022-09-05T14:14:11.280Z,2.72
2022-09-05T14:16:53.918Z,2.50
2022-09-05T14:19:43.449Z,2.38
2022-09-05T14:22:22.232Z,2.50
2022-09-05T14:24:56.106Z,2.58
2022-09-05T14:27:32.248Z,2.40
2022-09-05T14:30:38.444Z,2.42
2022-09-05T14:37:41.495Z,2.80
2022-09-05T14:37:42.354Z,2.70
2022-09-05T14:39:34.606Z,2.70
2022-09-05T14:42:24.005Z,2.58
2022-09-05T14:45:43.970Z,2.50
2022-09-05T14:48:54.076Z,2.40
2022-09-05T14:51:43.177Z,2.47
2022-09-05T14:59:35.374Z,2.40
2022-09-05T15:02:52.291Z,2.35
2022-09-05T15:03:06.405Z,2.42
2022-09-05T15:05:41.700Z,2.47
2022-09-05T15:08:31.890Z,2.50
2022-09-05T15:12:21.743Z,2.50
2022-09-05T15:14:07.436Z,2.20
2022-09-05T15:16:43.535Z,2.75
2022-09-05T15:20:06.801Z,2.20
2022-09-05T15:22:38.682Z,2.40
2022-09-05T15:25:17.953Z,2.45
2022-09-05T15:27:48.161Z,2.33
2022-09-05T15:30:34.842Z,2.30
2022-09-05T15:33:18.875Z,2.40
2022-09-05T15:35:58.255Z,3.08
2022-09-05T15:38:54.753Z,3.13
2022-09-05T15:41:24.778Z,3.60
2022-09-05T15:43:59.646Z,3.40
2022-09-05T15:46:47.459Z,3.40
2022-09-05T15:49:29.226Z,3.53
2022-09-05T15:52:03.162Z,3.50
2022-09-05T15:54:37.629Z,3.47
2022-09-05T15:57:15.247Z,3.22
2022-09-05T15:59:52.343Z,3.38
2022-09-05T16:02:24.211Z,3.30
2022-09-05T16:10:28.967Z,3.50
2022-09-05T16:10:37.467Z,2.80
2022-09-05T16:12:05.211Z,3.50
2022-09-05T16:14:24.160Z,3.40
2022-09-05T16:23:13.708Z,3.10
2022-09-05T16:23:26.563Z,3.28
2022-09-05T16:23:29.142Z,2.65
2022-09-05T16:25:37.632Z,3.08
2022-09-05T16:28:12.790Z,3.20
2022-09-05T16:30:41.921Z,2.90
2022-09-05T16:33:17.034Z,2.90
2022-09-05T16:35:54.274Z,2.97
2022-09-05T16:38:36.589Z,2.67
2022-09-05T16:41:24.671Z,3.30
2022-09-05T16:43:57.638Z,3.20
2022-09-05T16:46:32.532Z,3.08
2022-09-05T16:49:12.226Z,2.88
2022-09-05T16:51:45.902Z,2.70
2022-09-05T16:54:25.614Z,3.03
2022-09-05T16:57:00.767Z,3.17
2022-09-05T16:59:32.968Z,2.85
2022-09-05T17:02:11.925Z,3.05
2022-09-05T17:05:10.112Z,2.95
2022-09-05T17:08:07.174Z,3.25
2022-09-05T17:10:44.537Z,3.60
2022-09-05T17:13:39.886Z,3.13
2022-09-05T17:16:13.622Z,2.88
2022-09-05T17:18:43.600Z,2.95
2022-09-05T17:21:43.477Z,2.95
2022-09-05T17:29:25.751Z,3.20
2022-09-05T17:29:36.267Z,2.67
2022-09-05T17:32:59.168Z,3.30
2022-09-05T17:35:43.139Z,4.53
2022-09-05T17:38:52.886Z,4.38
2022-09-05T17:41:43.148Z,4.15
2022-09-05T17:44:20.326Z,4.53
2022-09-05T17:47:06.753Z,4.13
2022-09-05T17:49:44.947Z,4.07
2022-09-05T17:52:24.204Z,4.05
2022-09-05T17:54:55.069Z,3.97
2022-09-05T17:57:50.622Z,3.97
2022-09-05T18:01:07.511Z,4.10
2022-09-05T18:04:16.679Z,4.03
2022-09-05T18:07:00.407Z,3.95
2022-09-05T18:10:03.505Z,4.03
2022-09-05T18:13:13.285Z,3.80
2022-09-05T18:16:11.539Z,3.42
2022-09-05T18:21:51.429Z,3.47
2022-09-05T18:24:35.180Z,3.60
2022-09-05T18:30:11.019Z,2.70
2022-09-05T18:32:47.363Z,2.72
2022-09-05T18:35:36.891Z,2.60
2022-09-05T18:38:50.922Z,2.85
2022-09-05T18:41:23.367Z,2.50
2022-09-05T18:44:13.597Z,2.80
2022-09-05T18:46:50.968Z,2.80
2022-09-05T18:50:25.518Z,2.92
2022-09-05T18:52:23.217Z,2.97
2022-09-05T18:56:08.904Z,2.80
2022-09-05T18:57:57.915Z,2.80
2022-09-05T19:00:46.901Z,2.35
2022-09-05T19:03:24.990Z,2.72
2022-09-05T19:05:59.200Z,2.17
2022-09-05T19:08:51.983Z,2.35
2022-09-05T19:11:32.330Z,2.67
2022-09-05T19:14:25.414Z,3.17
2022-09-05T19:17:07.560Z,2.22
2022-09-05T19:20:32.877Z,2.53
2022-09-05T19:23:11.542Z,2.63
2022-09-05T19:25:43.696Z,2.30
2022-09-05T19:33:17.081Z,2.65
2022-09-05T19:36:56.076Z,2.47
2022-09-05T19:37:04.963Z,2.45
2022-09-05T19:37:30.346Z,2.45
2022-09-05T19:47:12.304Z,2.45
2022-09-05T19:47:40.056Z,2.47
2022-09-05T19:47:44.517Z,2.60
2022-09-05T19:48:34.453Z,2.70
2022-09-05T19:51:17.491Z,2.50
2022-09-05T19:54:03.870Z,2.53
2022-09-05T19:56:38.705Z,2.30
2022-09-05T19:59:22.273Z,2.63
2022-09-05T20:01:53.287Z,2.65
2022-09-05T20:04:22.175Z,6.80
2022-09-05T20:06:51.289Z,3.65
2022-09-05T20:09:22.415Z,3.28
2022-09-05T20:11:52.927Z,2.80
2022-09-05T20:14:25.525Z,3.00
2022-09-05T20:16:58.736Z,3.05
2022-09-05T20:19:32.189Z,3.10
2022-09-05T20:22:12.754Z,2.80
2022-09-05T20:24:54.032Z,2.90
2022-09-05T20:27:27.498Z,2.42
2022-09-05T20:30:00.466Z,2.53
2022-09-05T20:32:39.853Z,2.75
2022-09-05T20:41:52.239Z,2.60
2022-09-05T20:43:17.213Z,2.92
2022-09-05T20:43:24.178Z,2.50
2022-09-05T20:44:01.600Z,2.55
2022-09-05T20:54:06.894Z,2.63
2022-09-05T20:54:14.081Z,2.80
2022-09-05T20:54:28.652Z,3.00
2022-09-05T20:55:41.719Z,2.90
2022-09-05T20:58:13.529Z,3.00
2022-09-05T21:01:11.660Z,2.67
2022-09-05T21:03:38.510Z,2.60
2022-09-05T21:06:33.293Z,2.75
2022-09-05T21:09:22.450Z,2.58
2022-09-05T21:11:55.676Z,2.92
2022-09-05T21:14:27.828Z,3.28
2022-09-05T21:17:01.228Z,3.00
2022-09-05T21:19:41.529Z,2.67
2022-09-05T21:22:24.104Z,3.13
2022-09-05T21:25:18.481Z,2.60
2022-09-05T21:28:01.614Z,2.70
2022-09-05T21:30:33.074Z,2.70
2022-09-05T21:33:07.311Z,2.45
2022-09-05T21:35:43.107Z,2.53
2022-09-05T21:38:15.986Z,2.67
2022-09-05T21:41:02.661Z,3.05
2022-09-05T21:47:37.584Z,2.65
2022-09-05T21:47:44.402Z,3.15
2022-09-05T21:49:09.125Z,2.50
2022-09-05T21:51:38.640Z,2.50
2022-09-05T21:59:21.205Z,2.70
2022-09-05T21:59:25.235Z,2.90
2022-09-05T22:00:07.166Z,2.63
2022-09-05T22:02:48.967Z,2.78
2022-09-05T22:05:17.771Z,2.30
2022-09-05T22:07:46.150Z,2.80
2022-09-05T22:10:16.372Z,2.63
2022-09-05T22:12:44.694Z,2.75
2022-09-05T22:15:27.391Z,2.85
2022-09-05T22:18:08.145Z,3.00
2022-09-05T22:20:51.850Z,3.00
2022-09-05T22:23:43.280Z,2.80
2022-09-05T22:26:13.595Z,3.13
2022-09-05T22:28:48.833Z,2.90
2022-09-05T22:31:17.402Z,3.00
2022-09-05T22:33:45.823Z,3.35
2022-09-05T22:36:19.275Z,2.80
2022-09-05T22:38:47.653Z,3.00
2022-09-05T22:41:17.280Z,2.80
2022-09-05T22:43:46.287Z,2.78
2022-09-05T22:46:14.673Z,2.72
2022-09-05T22:48:42.803Z,3.42
2022-09-05T22:51:10.909Z,3.00
2022-09-05T22:53:39.078Z,3.00
2022-09-05T22:56:08.811Z,3.38
2022-09-05T22:58:43.999Z,3.10
2022-09-05T23:46:37.857Z,2.63
2022-09-05T23:49:06.362Z,3.00
2022-09-05T23:51:38.496Z,2.83
2022-09-05T23:54:06.764Z,2.80
2022-09-05T23:56:34.904Z,2.90
2022-09-05T23:59:03.385Z,2.72
